WetterOnline ( https://www.wetteronline.de )

Wetter aktuell Spremberg

Aktuelles Wetter: Hoyerswerda (116m)

6-stündlich | Neueste Meldungen
Ortszeit Temperatur Wetter
Sa, 26.11. 13:00 7.7° C bedeckt
Sa, 26.11. 7:00 6.8° C bedeckt
Sa, 26.11. 1:00 7.0° C leichter Regen
Fr, 25.11. 19:00 5.9° C leichter Regen
Fr, 25.11. 13:00 10.3° C leicht bewölkt
Fr, 25.11. 7:00 3.8° C bedeckt
Fr, 25.11. 1:00 5.4° C bewölkt
Do, 24.11. 19:00 4.9° C bedeckt
Ortszeit Temperatur Wetter
Sa, 26.11. 17:30 6.5° C bewölkt
Sa, 26.11. 17:20 6.5° C bewölkt
Sa, 26.11. 17:10 6.8° C bewölkt
Sa, 26.11. 17:00 7.1° C bedeckt
Sa, 26.11. 16:50 7.1° C bedeckt
Sa, 26.11. 16:40 7.1° C bedeckt
Sa, 26.11. 16:30 7.2° C bedeckt
Sa, 26.11. 16:00 7.3° C bedeckt
Sa, 26.11. 15:30 7.4° C bedeckt
Sa, 26.11. 15:00 7.5° C bedeckt
Sa, 26.11. 14:30 7.5° C bedeckt
Ortszeit Relative Feuchte Sichtweite
Sa, 26.11. 13:00 88% 29 km
Sa, 26.11. 7:00 96% 6 km
Sa, 26.11. 1:00 97% 6 km
Fr, 25.11. 19:00 86% 20 km
Fr, 25.11. 13:00 66% 50 km
Fr, 25.11. 7:00 99% 13 km
Fr, 25.11. 1:00 97% 17 km
Do, 24.11. 19:00 97% 6 km
Ortszeit Relative Feuchte Sichtweite
Sa, 26.11. 17:30 90% 25 km
Sa, 26.11. 17:20 90% -
Sa, 26.11. 17:10 88% -
Sa, 26.11. 17:00 88% 27 km
Sa, 26.11. 16:50 88% -
Sa, 26.11. 16:40 89% -
Sa, 26.11. 16:30 88% 27 km
Sa, 26.11. 16:00 87% 30 km
Sa, 26.11. 15:30 88% 30 km
Sa, 26.11. 15:00 87% 27 km
Sa, 26.11. 14:30 88% 25 km
Ortszeit Niederschlagsmenge Niederschlagsart
Sa, 26.11. 13:00 0.2 l/m2 in 6 Std. Regen
Sa, 26.11. 7:00 2 l/m2 in 12 Std. Regen
Sa, 26.11. 1:00 1 l/m2 in 6 Std. Regen
Fr, 25.11. 19:00 0.1 l/m2 in 12 Std. Regen
Fr, 25.11. 13:00 0.0 l/m2 in 6 Std. -
Fr, 25.11. 7:00 0.1 l/m2 in 12 Std. Regen
Fr, 25.11. 1:00 0.1 l/m2 in 6 Std. Sprühregen
Do, 24.11. 19:00 0.1 l/m2 in 12 Std. -
Ortszeit Niederschlagsmenge Niederschlagsart
Sa, 26.11. 17:30 0.0 l/m2 in 1 Std. -
Sa, 26.11. 17:20 keine Meldung -
Sa, 26.11. 17:10 keine Meldung -
Sa, 26.11. 17:00 0.0 l/m2 in 1 Std. -
Sa, 26.11. 16:50 keine Meldung -
Sa, 26.11. 16:40 keine Meldung -
Sa, 26.11. 16:30 0.0 l/m2 in 1 Std. -
Sa, 26.11. 16:00 0.0 l/m2 in 1 Std. -
Sa, 26.11. 15:30 0.0 l/m2 in 1 Std. -
Sa, 26.11. 15:00 0.0 l/m2 in 1 Std. -
Sa, 26.11. 14:30 0.0 l/m2 in 1 Std. -
Ortszeit Stärke Spitze Richtung
km/h Bft. km/h Grad Sektor
Sa, 26.11. 13:00 18 3 29 280° W
Sa, 26.11. 7:00 15 3 24 270° W
Sa, 26.11. 1:00 13 3 22 260° W
Fr, 25.11. 19:00 6 1 19 170° S
Fr, 25.11. 13:00 7 2 11 170° S
Fr, 25.11. 7:00 4 1 7 140° SO
Fr, 25.11. 1:00 7 2 11 200° S
Do, 24.11. 19:00 4 1 7 130° SO
Ortszeit Stärke Spitze Richtung
km/h Bft. km/h Grad Sektor
Sa, 26.11. 17:30 11 2 22 270° W
Sa, 26.11. 17:20 11 2 - 270° W
Sa, 26.11. 17:10 14 3 - 270° W
Sa, 26.11. 17:00 11 2 25 290° W
Sa, 26.11. 16:50 11 2 - 290° W
Sa, 26.11. 16:40 11 2 - 290° W
Sa, 26.11. 16:30 17 3 26 280° W
Sa, 26.11. 16:00 11 2 22 280° W
Sa, 26.11. 15:30 13 3 20 270° W
Sa, 26.11. 15:00 14 3 22 280° W
Sa, 26.11. 14:30 14 3 22 280° W
Ortszeit Untergrenze Bedeckung Gattung
total tief tief mittel hoch
Sa, 26.11. 13:00 390 m 8/8 8/8 - - -
Sa, 26.11. 7:00 120 m 8/8 8/8 - - -
Sa, 26.11. 1:00 120 m 8/8 8/8 - - -
Fr, 25.11. 19:00 990 m 7/8 7/8 - - -
Fr, 25.11. 13:00 5700 m 7/8 1/8 - - -
Fr, 25.11. 7:00 1410 m 8/8 8/8 - - -
Fr, 25.11. 1:00 1260 m 7/8 7/8 - - -
Do, 24.11. 19:00 960 m 8/8 8/8 - - -
Ortszeit Bedeckungsgrad in Achtel und Wolkenuntergrenze
Sa, 26.11. 17:30 2(750m) 7(960m)
Sa, 26.11. 17:20 2(750m) 7(960m)
Sa, 26.11. 17:10 7
Sa, 26.11. 17:00 8(750m)
Sa, 26.11. 16:50 8(750m)
Sa, 26.11. 16:40 8
Sa, 26.11. 16:30 4(570m) 7(960m) 8(1470m)
Sa, 26.11. 16:00 7(1020m) 8(1380m)
Sa, 26.11. 15:30 8(1170m)
Sa, 26.11. 15:00 8(990m)
Sa, 26.11. 14:30 8(870m)
Ortszeit Luftdruck NN (hPa) Tendenz (hPa in 3 Std.)
Sa, 26.11. 13:00 1029 + 1,3
Sa, 26.11. 7:00 1026 + 1,8
Sa, 26.11. 1:00 1022 + 1,4
Fr, 25.11. 19:00 1019 + 1,3
Fr, 25.11. 13:00 1017 - 0,2
Fr, 25.11. 7:00 1017 + 0,6
Fr, 25.11. 1:00 1016 + 0,7
Do, 24.11. 19:00 1015 + 1,3
Ortszeit Luftdruck NN (hPa) Tendenz (hPa in 3 Std.)
Sa, 26.11. 17:30 1030 + 0,5
Sa, 26.11. 17:20 1030 keine Meldung
Sa, 26.11. 17:10 1030 keine Meldung
Sa, 26.11. 17:00 1030 + 0,8
Sa, 26.11. 16:50 1030 keine Meldung
Sa, 26.11. 16:40 1030 keine Meldung
Sa, 26.11. 16:30 1030 + 0,7
Sa, 26.11. 16:00 1030 + 0,7
Sa, 26.11. 15:30 1030 + 0,7
Sa, 26.11. 15:00 1030 + 0,9
Sa, 26.11. 14:30 1030 + 1,0
Ortszeit Schneehöhe (cm)
Sa, 26.11. 13:00 0
Sa, 26.11. 7:00 0
Sa, 26.11. 1:00 0
Fr, 25.11. 19:00 0
Fr, 25.11. 13:00 0
Fr, 25.11. 7:00 0
Fr, 25.11. 1:00 0
Do, 24.11. 19:00 0
Ortszeit Schneehöhe (cm)
Sa, 26.11. 17:30 0
Sa, 26.11. 17:20 0
Sa, 26.11. 17:10 0
Sa, 26.11. 17:00 0
Sa, 26.11. 16:50 0
Sa, 26.11. 16:40 0
Sa, 26.11. 16:30 0
Sa, 26.11. 16:00 0
Sa, 26.11. 15:30 0
Sa, 26.11. 15:00 0
Sa, 26.11. 14:30 0
Link zu dieser Seite / Seite empfehlen

Das Wetter in ...